Terminal Aerodrome Forecast
Issued by NWS

Current Version | Previous Version | Text Only | Print | Product List | Glossary On
Versions: 1 2 3 4 5 6 7 8 9 10 11 12 13 14 15 16
000
FTUS44 KLZK 261120
TAFBPK
TAF
KBPK 261120Z 2612/2712 16003KT P6SM BKN250
     FM261900 VRB03KT P6SM OVC100
     FM270700 32003KT P6SM OVC050
     FM271000 33004KT 6SM BR OVC010
      TEMPO 2710/2712 4SM BR BKN005=

USA.gov is the U.S. government's official web portal to all federal, state and local government web resources and services.